sensor_id;sensor_type;location;lat;lon;timestamp;P1;durP1;ratioP1;P2;durP2;ratioP2
19623;SDS011;9959;49.798;9.928;2023-06-14T00:01:42;11.52;;;6.38;;
19623;SDS011;9959;49.798;9.928;2023-06-14T00:04:12;9.98;;;6.10;;
19623;SDS011;9959;49.798;9.928;2023-06-14T00:06:39;14.02;;;7.13;;
19623;SDS011;9959;49.798;9.928;2023-06-14T00:09:07;9.75;;;6.60;;
19623;SDS011;9959;49.798;9.928;2023-06-14T00:11:35;9.80;;;6.60;;
19623;SDS011;9959;49.798;9.928;2023-06-14T00:14:02;11.75;;;6.50;;
19623;SDS011;9959;49.798;9.928;2023-06-14T00:16:30;18.83;;;7.10;;
19623;SDS011;9959;49.798;9.928;2023-06-14T00:18:59;10.98;;;7.25;;
19623;SDS011;9959;49.798;9.928;2023-06-14T00:21:26;11.80;;;6.55;;
19623;SDS011;9959;49.798;9.928;2023-06-14T00:23:55;9.43;;;6.65;;
19623;SDS011;9959;49.798;9.928;2023-06-14T00:26:22;10.27;;;6.57;;
19623;SDS011;9959;49.798;9.928;2023-06-14T00:28:49;10.40;;;6.78;;
19623;SDS011;9959;49.798;9.928;2023-06-14T00:31:16;11.25;;;7.07;;
19623;SDS011;9959;49.798;9.928;2023-06-14T00:33:43;11.40;;;7.13;;
19623;SDS011;9959;49.798;9.928;2023-06-14T00:36:10;7.82;;;6.65;;
19623;SDS011;9959;49.798;9.928;2023-06-14T00:38:37;11.20;;;6.65;;
19623;SDS011;9959;49.798;9.928;2023-06-14T00:41:04;11.07;;;6.78;;
19623;SDS011;9959;49.798;9.928;2023-06-14T00:43:31;10.93;;;6.15;;
19623;SDS011;9959;49.798;9.928;2023-06-14T00:45:59;11.18;;;6.78;;
19623;SDS011;9959;49.798;9.928;2023-06-14T00:48:25;9.75;;;6.88;;
19623;SDS011;9959;49.798;9.928;2023-06-14T00:50:53;8.02;;;6.38;;
19623;SDS011;9959;49.798;9.928;2023-06-14T00:53:21;9.90;;;6.10;;
19623;SDS011;9959;49.798;9.928;2023-06-14T00:55:49;9.00;;;6.38;;
19623;SDS011;9959;49.798;9.928;2023-06-14T00:58:16;11.70;;;6.30;;
19623;SDS011;9959;49.798;9.928;2023-06-14T01:00:43;12.27;;;6.93;;
19623;SDS011;9959;49.798;9.928;2023-06-14T01:03:11;9.57;;;6.22;;
19623;SDS011;9959;49.798;9.928;2023-06-14T01:05:39;12.40;;;6.40;;
19623;SDS011;9959;49.798;9.928;2023-06-14T01:08:24;8.60;;;6.25;;
19623;SDS011;9959;49.798;9.928;2023-06-14T01:11:22;12.55;;;6.35;;
19623;SDS011;9959;49.798;9.928;2023-06-14T01:13:53;7.80;;;6.13;;
19623;SDS011;9959;49.798;9.928;2023-06-14T01:16:23;7.85;;;5.95;;
19623;SDS011;9959;49.798;9.928;2023-06-14T01:18:52;9.18;;;5.95;;
19623;SDS011;9959;49.798;9.928;2023-06-14T01:21:23;11.43;;;6.00;;
19623;SDS011;9959;49.798;9.928;2023-06-14T01:23:51;10.80;;;6.50;;
19623;SDS011;9959;49.798;9.928;2023-06-14T01:26:22;9.80;;;6.38;;
19623;SDS011;9959;49.798;9.928;2023-06-14T01:28:49;10.90;;;6.90;;
19623;SDS011;9959;49.798;9.928;2023-06-14T01:31:19;8.00;;;6.05;;
19623;SDS011;9959;49.798;9.928;2023-06-14T01:33:51;10.55;;;6.55;;
19623;SDS011;9959;49.798;9.928;2023-06-14T01:36:19;9.88;;;6.38;;
19623;SDS011;9959;49.798;9.928;2023-06-14T01:38:47;13.20;;;6.15;;
19623;SDS011;9959;49.798;9.928;2023-06-14T01:41:17;14.30;;;6.80;;
19623;SDS011;9959;49.798;9.928;2023-06-14T01:43:47;9.00;;;6.45;;
19623;SDS011;9959;49.798;9.928;2023-06-14T01:46:16;10.18;;;6.47;;
19623;SDS011;9959;49.798;9.928;2023-06-14T01:48:43;7.90;;;6.63;;
19623;SDS011;9959;49.798;9.928;2023-06-14T01:51:11;10.32;;;6.13;;
19623;SDS011;9959;49.798;9.928;2023-06-14T01:53:37;13.77;;;6.45;;
19623;SDS011;9959;49.798;9.928;2023-06-14T01:56:04;9.88;;;6.55;;
19623;SDS011;9959;49.798;9.928;2023-06-14T01:58:32;9.65;;;6.78;;
19623;SDS011;9959;49.798;9.928;2023-06-14T02:00:59;10.05;;;6.45;;
19623;SDS011;9959;49.798;9.928;2023-06-14T02:03:27;13.75;;;6.72;;
19623;SDS011;9959;49.798;9.928;2023-06-14T02:05:54;7.88;;;6.25;;
19623;SDS011;9959;49.798;9.928;2023-06-14T02:08:22;9.70;;;6.35;;
19623;SDS011;9959;49.798;9.928;2023-06-14T02:10:50;10.68;;;6.00;;
19623;SDS011;9959;49.798;9.928;2023-06-14T02:13:17;9.82;;;6.78;;
19623;SDS011;9959;49.798;9.928;2023-06-14T02:15:43;11.50;;;6.90;;
19623;SDS011;9959;49.798;9.928;2023-06-14T02:18:12;9.05;;;6.65;;
19623;SDS011;9959;49.798;9.928;2023-06-14T02:20:39;10.18;;;6.72;;
19623;SDS011;9959;49.798;9.928;2023-06-14T02:23:05;10.38;;;5.95;;
19623;SDS011;9959;49.798;9.928;2023-06-14T02:25:34;11.07;;;6.50;;
19623;SDS011;9959;49.798;9.928;2023-06-14T02:28:01;14.45;;;6.38;;
19623;SDS011;9959;49.798;9.928;2023-06-14T02:30:28;9.75;;;6.85;;
19623;SDS011;9959;49.798;9.928;2023-06-14T02:32:55;11.07;;;7.18;;
19623;SDS011;9959;49.798;9.928;2023-06-14T02:35:23;11.45;;;6.65;;
19623;SDS011;9959;49.798;9.928;2023-06-14T02:37:53;12.02;;;7.13;;
19623;SDS011;9959;49.798;9.928;2023-06-14T02:40:20;12.50;;;7.07;;
19623;SDS011;9959;49.798;9.928;2023-06-14T02:42:47;10.60;;;7.32;;
19623;SDS011;9959;49.798;9.928;2023-06-14T02:45:14;11.48;;;6.80;;
19623;SDS011;9959;49.798;9.928;2023-06-14T02:47:41;12.13;;;7.00;;
19623;SDS011;9959;49.798;9.928;2023-06-14T02:50:08;9.15;;;6.40;;
19623;SDS011;9959;49.798;9.928;2023-06-14T02:52:36;9.55;;;6.57;;
19623;SDS011;9959;49.798;9.928;2023-06-14T02:55:03;9.77;;;6.82;;
19623;SDS011;9959;49.798;9.928;2023-06-14T02:57:31;12.07;;;6.38;;
19623;SDS011;9959;49.798;9.928;2023-06-14T02:59:57;9.15;;;6.78;;
19623;SDS011;9959;49.798;9.928;2023-06-14T03:02:24;11.15;;;6.55;;
19623;SDS011;9959;49.798;9.928;2023-06-14T03:04:51;10.23;;;6.63;;
19623;SDS011;9959;49.798;9.928;2023-06-14T03:07:18;11.20;;;7.65;;
19623;SDS011;9959;49.798;9.928;2023-06-14T03:09:48;9.93;;;6.35;;
19623;SDS011;9959;49.798;9.928;2023-06-14T03:12:16;13.43;;;7.10;;
19623;SDS011;9959;49.798;9.928;2023-06-14T03:14:42;12.05;;;6.88;;
19623;SDS011;9959;49.798;9.928;2023-06-14T03:17:13;10.10;;;6.63;;
19623;SDS011;9959;49.798;9.928;2023-06-14T03:19:40;12.20;;;7.20;;
19623;SDS011;9959;49.798;9.928;2023-06-14T03:22:07;16.27;;;6.50;;
19623;SDS011;9959;49.798;9.928;2023-06-14T03:24:34;10.95;;;6.93;;
19623;SDS011;9959;49.798;9.928;2023-06-14T03:27:03;10.63;;;7.13;;
19623;SDS011;9959;49.798;9.928;2023-06-14T03:29:31;10.70;;;6.72;;
19623;SDS011;9959;49.798;9.928;2023-06-14T03:31:58;10.60;;;6.47;;
19623;SDS011;9959;49.798;9.928;2023-06-14T03:34:29;9.52;;;6.60;;
19623;SDS011;9959;49.798;9.928;2023-06-14T03:36:57;12.02;;;7.03;;
19623;SDS011;9959;49.798;9.928;2023-06-14T03:39:24;10.60;;;7.05;;
19623;SDS011;9959;49.798;9.928;2023-06-14T03:41:51;11.63;;;6.90;;
19623;SDS011;9959;49.798;9.928;2023-06-14T03:44:18;14.45;;;7.50;;
19623;SDS011;9959;49.798;9.928;2023-06-14T03:46:45;12.68;;;6.80;;
19623;SDS011;9959;49.798;9.928;2023-06-14T03:49:12;13.82;;;7.00;;
19623;SDS011;9959;49.798;9.928;2023-06-14T03:51:40;13.02;;;6.82;;
19623;SDS011;9959;49.798;9.928;2023-06-14T03:54:07;11.65;;;6.75;;
19623;SDS011;9959;49.798;9.928;2023-06-14T03:56:36;15.20;;;7.50;;
19623;SDS011;9959;49.798;9.928;2023-06-14T03:59:03;14.88;;;8.27;;
19623;SDS011;9959;49.798;9.928;2023-06-14T04:01:30;7.85;;;6.15;;
19623;SDS011;9959;49.798;9.928;2023-06-14T04:03:57;15.82;;;7.28;;
19623;SDS011;9959;49.798;9.928;2023-06-14T04:06:25;14.63;;;7.60;;
19623;SDS011;9959;49.798;9.928;2023-06-14T04:08:59;12.68;;;7.18;;
19623;SDS011;9959;49.798;9.928;2023-06-14T04:11:29;15.48;;;6.97;;
19623;SDS011;9959;49.798;9.928;2023-06-14T04:13:58;10.40;;;7.20;;
19623;SDS011;9959;49.798;9.928;2023-06-14T04:16:25;14.75;;;7.32;;
19623;SDS011;9959;49.798;9.928;2023-06-14T04:18:53;13.45;;;6.93;;
19623;SDS011;9959;49.798;9.928;2023-06-14T04:21:21;11.35;;;7.10;;
19623;SDS011;9959;49.798;9.928;2023-06-14T04:23:50;12.93;;;6.40;;
19623;SDS011;9959;49.798;9.928;2023-06-14T04:26:19;15.77;;;7.15;;
19623;SDS011;9959;49.798;9.928;2023-06-14T04:28:49;9.43;;;6.88;;
19623;SDS011;9959;49.798;9.928;2023-06-14T04:31:17;11.23;;;6.43;;
19623;SDS011;9959;49.798;9.928;2023-06-14T04:33:44;10.60;;;6.80;;
19623;SDS011;9959;49.798;9.928;2023-06-14T04:36:13;13.65;;;6.97;;
19623;SDS011;9959;49.798;9.928;2023-06-14T04:38:40;10.13;;;6.57;;
19623;SDS011;9959;49.798;9.928;2023-06-14T04:41:09;14.63;;;6.65;;
19623;SDS011;9959;49.798;9.928;2023-06-14T04:43:38;14.25;;;7.30;;
19623;SDS011;9959;49.798;9.928;2023-06-14T04:46:05;11.90;;;6.72;;
19623;SDS011;9959;49.798;9.928;2023-06-14T04:48:37;12.27;;;7.00;;
19623;SDS011;9959;49.798;9.928;2023-06-14T04:51:07;17.13;;;7.30;;
19623;SDS011;9959;49.798;9.928;2023-06-14T04:53:35;15.68;;;6.55;;
19623;SDS011;9959;49.798;9.928;2023-06-14T04:56:02;21.05;;;7.13;;
19623;SDS011;9959;49.798;9.928;2023-06-14T04:58:30;11.50;;;6.53;;
19623;SDS011;9959;49.798;9.928;2023-06-14T05:00:58;11.95;;;6.78;;
19623;SDS011;9959;49.798;9.928;2023-06-14T05:03:26;13.05;;;6.72;;
19623;SDS011;9959;49.798;9.928;2023-06-14T05:05:54;13.63;;;6.50;;
19623;SDS011;9959;49.798;9.928;2023-06-14T05:08:21;13.07;;;6.20;;
19623;SDS011;9959;49.798;9.928;2023-06-14T05:10:51;13.27;;;6.68;;
19623;SDS011;9959;49.798;9.928;2023-06-14T05:13:18;9.30;;;6.47;;
19623;SDS011;9959;49.798;9.928;2023-06-14T05:15:45;14.77;;;6.38;;
19623;SDS011;9959;49.798;9.928;2023-06-14T05:18:12;15.73;;;6.55;;
19623;SDS011;9959;49.798;9.928;2023-06-14T05:20:40;9.70;;;6.47;;
19623;SDS011;9959;49.798;9.928;2023-06-14T05:23:08;11.90;;;6.45;;
19623;SDS011;9959;49.798;9.928;2023-06-14T05:25:45;8.90;;;6.35;;
19623;SDS011;9959;49.798;9.928;2023-06-14T05:28:12;18.27;;;6.78;;
19623;SDS011;9959;49.798;9.928;2023-06-14T05:30:39;13.43;;;6.30;;
19623;SDS011;9959;49.798;9.928;2023-06-14T05:33:06;13.02;;;6.88;;
19623;SDS011;9959;49.798;9.928;2023-06-14T05:35:34;9.95;;;6.45;;
19623;SDS011;9959;49.798;9.928;2023-06-14T05:38:01;10.75;;;6.10;;
19623;SDS011;9959;49.798;9.928;2023-06-14T05:40:28;9.38;;;6.70;;
19623;SDS011;9959;49.798;9.928;2023-06-14T05:42:54;10.63;;;5.80;;
19623;SDS011;9959;49.798;9.928;2023-06-14T05:45:21;14.25;;;6.60;;
19623;SDS011;9959;49.798;9.928;2023-06-14T05:47:48;11.07;;;6.47;;
19623;SDS011;9959;49.798;9.928;2023-06-14T05:50:15;9.57;;;6.40;;
19623;SDS011;9959;49.798;9.928;2023-06-14T05:52:42;8.55;;;6.60;;
19623;SDS011;9959;49.798;9.928;2023-06-14T05:55:09;9.50;;;6.40;;
19623;SDS011;9959;49.798;9.928;2023-06-14T05:57:39;10.25;;;6.30;;
19623;SDS011;9959;49.798;9.928;2023-06-14T06:00:07;10.90;;;6.32;;
19623;SDS011;9959;49.798;9.928;2023-06-14T06:02:53;7.70;;;6.03;;
19623;SDS011;9959;49.798;9.928;2023-06-14T06:05:20;10.55;;;6.10;;
19623;SDS011;9959;49.798;9.928;2023-06-14T06:07:46;14.88;;;6.45;;
19623;SDS011;9959;49.798;9.928;2023-06-14T06:10:14;13.98;;;7.32;;
19623;SDS011;9959;49.798;9.928;2023-06-14T06:12:42;9.13;;;5.80;;
19623;SDS011;9959;49.798;9.928;2023-06-14T06:15:09;9.60;;;6.70;;
19623;SDS011;9959;49.798;9.928;2023-06-14T06:17:40;11.05;;;6.57;;
19623;SDS011;9959;49.798;9.928;2023-06-14T06:20:21;8.75;;;6.15;;
19623;SDS011;9959;49.798;9.928;2023-06-14T06:22:55;9.60;;;6.43;;
19623;SDS011;9959;49.798;9.928;2023-06-14T06:25:22;11.63;;;6.82;;
19623;SDS011;9959;49.798;9.928;2023-06-14T06:27:48;13.45;;;6.50;;
19623;SDS011;9959;49.798;9.928;2023-06-14T06:30:16;10.70;;;6.30;;
19623;SDS011;9959;49.798;9.928;2023-06-14T06:32:42;12.65;;;6.03;;
19623;SDS011;9959;49.798;9.928;2023-06-14T06:35:09;8.52;;;6.68;;
19623;SDS011;9959;49.798;9.928;2023-06-14T06:37:37;9.95;;;6.25;;
19623;SDS011;9959;49.798;9.928;2023-06-14T06:40:05;13.85;;;6.18;;
19623;SDS011;9959;49.798;9.928;2023-06-14T06:42:32;12.57;;;6.93;;
19623;SDS011;9959;49.798;9.928;2023-06-14T06:44:59;10.70;;;6.47;;
19623;SDS011;9959;49.798;9.928;2023-06-14T06:47:26;15.80;;;6.97;;
19623;SDS011;9959;49.798;9.928;2023-06-14T06:49:53;10.88;;;6.78;;
19623;SDS011;9959;49.798;9.928;2023-06-14T06:52:20;15.18;;;6.40;;
19623;SDS011;9959;49.798;9.928;2023-06-14T06:54:47;8.82;;;6.38;;
19623;SDS011;9959;49.798;9.928;2023-06-14T06:57:15;11.25;;;6.65;;
19623;SDS011;9959;49.798;9.928;2023-06-14T06:59:42;13.90;;;7.10;;
19623;SDS011;9959;49.798;9.928;2023-06-14T07:02:09;10.13;;;6.57;;
19623;SDS011;9959;49.798;9.928;2023-06-14T07:04:36;12.02;;;6.55;;
19623;SDS011;9959;49.798;9.928;2023-06-14T07:07:03;11.20;;;6.38;;
19623;SDS011;9959;49.798;9.928;2023-06-14T07:09:30;8.80;;;6.55;;
19623;SDS011;9959;49.798;9.928;2023-06-14T07:11:57;13.80;;;6.72;;
19623;SDS011;9959;49.798;9.928;2023-06-14T07:14:24;12.98;;;6.93;;
19623;SDS011;9959;49.798;9.928;2023-06-14T07:16:51;15.43;;;6.97;;
19623;SDS011;9959;49.798;9.928;2023-06-14T07:19:18;8.77;;;6.82;;
19623;SDS011;9959;49.798;9.928;2023-06-14T07:21:45;10.32;;;6.20;;
19623;SDS011;9959;49.798;9.928;2023-06-14T07:24:12;13.25;;;6.63;;
19623;SDS011;9959;49.798;9.928;2023-06-14T07:26:39;10.77;;;6.45;;
19623;SDS011;9959;49.798;9.928;2023-06-14T07:29:05;9.65;;;6.53;;
19623;SDS011;9959;49.798;9.928;2023-06-14T07:31:32;8.27;;;6.03;;
19623;SDS011;9959;49.798;9.928;2023-06-14T07:33:59;10.57;;;6.25;;
19623;SDS011;9959;49.798;9.928;2023-06-14T07:36:26;10.48;;;5.95;;
19623;SDS011;9959;49.798;9.928;2023-06-14T07:38:53;10.85;;;6.57;;
19623;SDS011;9959;49.798;9.928;2023-06-14T07:41:20;10.20;;;6.00;;
19623;SDS011;9959;49.798;9.928;2023-06-14T07:43:47;10.40;;;6.25;;
19623;SDS011;9959;49.798;9.928;2023-06-14T07:46:14;7.93;;;6.25;;
19623;SDS011;9959;49.798;9.928;2023-06-14T07:48:41;11.82;;;6.57;;
19623;SDS011;9959;49.798;9.928;2023-06-14T07:51:08;8.65;;;6.22;;
19623;SDS011;9959;49.798;9.928;2023-06-14T07:53:35;7.63;;;6.10;;
19623;SDS011;9959;49.798;9.928;2023-06-14T07:56:02;9.25;;;5.82;;
19623;SDS011;9959;49.798;9.928;2023-06-14T07:58:29;8.65;;;6.15;;
19623;SDS011;9959;49.798;9.928;2023-06-14T08:00:56;11.15;;;6.40;;
19623;SDS011;9959;49.798;9.928;2023-06-14T08:03:22;8.70;;;6.30;;
19623;SDS011;9959;49.798;9.928;2023-06-14T08:05:50;12.35;;;6.50;;
19623;SDS011;9959;49.798;9.928;2023-06-14T08:08:17;10.93;;;6.15;;
19623;SDS011;9959;49.798;9.928;2023-06-14T08:10:44;12.32;;;6.38;;
19623;SDS011;9959;49.798;9.928;2023-06-14T08:13:11;7.80;;;5.93;;
19623;SDS011;9959;49.798;9.928;2023-06-14T08:15:38;12.40;;;6.35;;
19623;SDS011;9959;49.798;9.928;2023-06-14T08:18:05;12.10;;;7.03;;
19623;SDS011;9959;49.798;9.928;2023-06-14T08:20:32;10.38;;;6.82;;
19623;SDS011;9959;49.798;9.928;2023-06-14T08:23:04;10.60;;;6.53;;
19623;SDS011;9959;49.798;9.928;2023-06-14T08:25:31;8.35;;;6.00;;
19623;SDS011;9959;49.798;9.928;2023-06-14T08:27:58;7.47;;;5.93;;
19623;SDS011;9959;49.798;9.928;2023-06-14T08:30:25;10.63;;;6.90;;
19623;SDS011;9959;49.798;9.928;2023-06-14T08:32:52;10.13;;;6.20;;
19623;SDS011;9959;49.798;9.928;2023-06-14T08:35:41;8.95;;;6.85;;
19623;SDS011;9959;49.798;9.928;2023-06-14T08:38:08;11.25;;;6.72;;
19623;SDS011;9959;49.798;9.928;2023-06-14T08:40:38;13.88;;;5.97;;
19623;SDS011;9959;49.798;9.928;2023-06-14T08:43:06;11.32;;;7.07;;
19623;SDS011;9959;49.798;9.928;2023-06-14T08:45:33;8.23;;;6.05;;
19623;SDS011;9959;49.798;9.928;2023-06-14T08:48:00;9.10;;;6.55;;
19623;SDS011;9959;49.798;9.928;2023-06-14T08:50:28;7.03;;;6.18;;
19623;SDS011;9959;49.798;9.928;2023-06-14T08:52:58;9.80;;;5.93;;
19623;SDS011;9959;49.798;9.928;2023-06-14T08:55:29;12.35;;;6.10;;
19623;SDS011;9959;49.798;9.928;2023-06-14T08:58:01;10.18;;;6.35;;
19623;SDS011;9959;49.798;9.928;2023-06-14T09:00:30;11.27;;;6.93;;
19623;SDS011;9959;49.798;9.928;2023-06-14T09:03:00;11.38;;;6.25;;
19623;SDS011;9959;49.798;9.928;2023-06-14T09:05:27;9.25;;;5.82;;
19623;SDS011;9959;49.798;9.928;2023-06-14T09:07:55;7.18;;;5.50;;
19623;SDS011;9959;49.798;9.928;2023-06-14T09:10:23;10.57;;;5.60;;
19623;SDS011;9959;49.798;9.928;2023-06-14T09:12:53;9.02;;;5.43;;
19623;SDS011;9959;49.798;9.928;2023-06-14T09:15:21;7.15;;;5.50;;
19623;SDS011;9959;49.798;9.928;2023-06-14T09:17:48;8.80;;;4.97;;
19623;SDS011;9959;49.798;9.928;2023-06-14T09:20:15;8.23;;;5.45;;
19623;SDS011;9959;49.798;9.928;2023-06-14T09:22:46;8.50;;;5.57;;
19623;SDS011;9959;49.798;9.928;2023-06-14T09:25:13;19.15;;;6.57;;
19623;SDS011;9959;49.798;9.928;2023-06-14T09:28:02;9.13;;;5.65;;
19623;SDS011;9959;49.798;9.928;2023-06-14T09:30:28;9.55;;;5.68;;
19623;SDS011;9959;49.798;9.928;2023-06-14T09:32:55;7.50;;;5.03;;
19623;SDS011;9959;49.798;9.928;2023-06-14T09:35:26;9.02;;;5.30;;
19623;SDS011;9959;49.798;9.928;2023-06-14T09:37:56;5.97;;;5.22;;
19623;SDS011;9959;49.798;9.928;2023-06-14T09:40:23;6.18;;;4.93;;
19623;SDS011;9959;49.798;9.928;2023-06-14T09:42:50;6.53;;;4.82;;
19623;SDS011;9959;49.798;9.928;2023-06-14T09:45:20;11.27;;;5.03;;
19623;SDS011;9959;49.798;9.928;2023-06-14T09:47:49;12.18;;;5.10;;
19623;SDS011;9959;49.798;9.928;2023-06-14T09:50:31;7.47;;;5.50;;
19623;SDS011;9959;49.798;9.928;2023-06-14T09:53:00;6.70;;;4.60;;
19623;SDS011;9959;49.798;9.928;2023-06-14T09:55:33;5.95;;;4.55;;
19623;SDS011;9959;49.798;9.928;2023-06-14T09:58:06;12.57;;;5.40;;
19623;SDS011;9959;49.798;9.928;2023-06-14T10:00:34;12.07;;;5.45;;
19623;SDS011;9959;49.798;9.928;2023-06-14T10:03:05;8.38;;;4.93;;
19623;SDS011;9959;49.798;9.928;2023-06-14T10:05:43;8.98;;;5.20;;
19623;SDS011;9959;49.798;9.928;2023-06-14T10:08:16;6.53;;;4.78;;
19623;SDS011;9959;49.798;9.928;2023-06-14T10:10:45;8.10;;;5.07;;
19623;SDS011;9959;49.798;9.928;2023-06-14T10:13:13;6.75;;;5.07;;
19623;SDS011;9959;49.798;9.928;2023-06-14T10:15:56;8.75;;;5.00;;
19623;SDS011;9959;49.798;9.928;2023-06-14T10:21:18;6.85;;;5.00;;
19623;SDS011;9959;49.798;9.928;2023-06-14T10:23:47;14.52;;;5.07;;
19623;SDS011;9959;49.798;9.928;2023-06-14T10:26:20;6.45;;;5.20;;
19623;SDS011;9959;49.798;9.928;2023-06-14T10:29:22;18.73;;;6.63;;
19623;SDS011;9959;49.798;9.928;2023-06-14T10:31:42;7.10;;;5.13;;
19623;SDS011;9959;49.798;9.928;2023-06-14T10:34:11;5.53;;;4.50;;
19623;SDS011;9959;49.798;9.928;2023-06-14T10:36:42;6.70;;;4.70;;
19623;SDS011;9959;49.798;9.928;2023-06-14T10:39:17;9.52;;;5.20;;
19623;SDS011;9959;49.798;9.928;2023-06-14T10:41:51;7.45;;;4.72;;
19623;SDS011;9959;49.798;9.928;2023-06-14T10:46:47;6.18;;;4.32;;
19623;SDS011;9959;49.798;9.928;2023-06-14T10:49:17;5.25;;;4.75;;
19623;SDS011;9959;49.798;9.928;2023-06-14T10:51:51;5.18;;;4.63;;
19623;SDS011;9959;49.798;9.928;2023-06-14T10:54:22;6.65;;;5.00;;
19623;SDS011;9959;49.798;9.928;2023-06-14T10:56:53;4.85;;;4.35;;
19623;SDS011;9959;49.798;9.928;2023-06-14T10:59:21;8.77;;;4.50;;
19623;SDS011;9959;49.798;9.928;2023-06-14T11:01:58;10.25;;;5.18;;
19623;SDS011;9959;49.798;9.928;2023-06-14T11:04:49;7.03;;;4.65;;
19623;SDS011;9959;49.798;9.928;2023-06-14T11:10:34;5.95;;;4.13;;
19623;SDS011;9959;49.798;9.928;2023-06-14T11:13:03;7.88;;;4.97;;
19623;SDS011;9959;49.798;9.928;2023-06-14T11:15:31;6.55;;;4.43;;
19623;SDS011;9959;49.798;9.928;2023-06-14T11:18:05;4.57;;;4.13;;
19623;SDS011;9959;49.798;9.928;2023-06-14T11:20:33;6.45;;;4.15;;
19623;SDS011;9959;49.798;9.928;2023-06-14T11:23:02;8.80;;;4.45;;
19623;SDS011;9959;49.798;9.928;2023-06-14T11:25:29;4.85;;;4.32;;
19623;SDS011;9959;49.798;9.928;2023-06-14T11:27:56;6.60;;;4.30;;
19623;SDS011;9959;49.798;9.928;2023-06-14T11:30:24;7.97;;;4.10;;
19623;SDS011;9959;49.798;9.928;2023-06-14T11:32:55;14.32;;;4.60;;
19623;SDS011;9959;49.798;9.928;2023-06-14T11:35:25;6.13;;;4.50;;
19623;SDS011;9959;49.798;9.928;2023-06-14T11:37:53;6.28;;;3.80;;
19623;SDS011;9959;49.798;9.928;2023-06-14T11:40:25;7.18;;;4.15;;
19623;SDS011;9959;49.798;9.928;2023-06-14T11:43:02;6.10;;;4.20;;
19623;SDS011;9959;49.798;9.928;2023-06-14T11:45:29;6.55;;;4.32;;
19623;SDS011;9959;49.798;9.928;2023-06-14T11:47:57;8.35;;;4.25;;
19623;SDS011;9959;49.798;9.928;2023-06-14T11:50:25;6.47;;;4.28;;
19623;SDS011;9959;49.798;9.928;2023-06-14T11:52:56;7.75;;;3.78;;
19623;SDS011;9959;49.798;9.928;2023-06-14T11:55:23;12.90;;;4.32;;
19623;SDS011;9959;49.798;9.928;2023-06-14T11:57:52;7.32;;;3.90;;
19623;SDS011;9959;49.798;9.928;2023-06-14T12:00:24;6.68;;;3.58;;
19623;SDS011;9959;49.798;9.928;2023-06-14T12:02:52;6.10;;;3.60;;
19623;SDS011;9959;49.798;9.928;2023-06-14T12:05:24;4.88;;;4.13;;
19623;SDS011;9959;49.798;9.928;2023-06-14T12:07:59;5.68;;;4.18;;
19623;SDS011;9959;49.798;9.928;2023-06-14T12:10:27;6.15;;;4.00;;
19623;SDS011;9959;49.798;9.928;2023-06-14T12:12:58;4.25;;;3.70;;
19623;SDS011;9959;49.798;9.928;2023-06-14T12:15:29;6.88;;;4.13;;
19623;SDS011;9959;49.798;9.928;2023-06-14T12:17:57;5.47;;;4.13;;
19623;SDS011;9959;49.798;9.928;2023-06-14T12:20:28;6.82;;;4.13;;
19623;SDS011;9959;49.798;9.928;2023-06-14T12:22:57;4.82;;;3.80;;
19623;SDS011;9959;49.798;9.928;2023-06-14T12:25:28;6.90;;;4.20;;
19623;SDS011;9959;49.798;9.928;2023-06-14T12:28:03;4.50;;;4.10;;
19623;SDS011;9959;49.798;9.928;2023-06-14T12:30:32;6.93;;;4.13;;
19623;SDS011;9959;49.798;9.928;2023-06-14T12:33:01;7.07;;;4.13;;
19623;SDS011;9959;49.798;9.928;2023-06-14T12:35:28;4.55;;;3.95;;
19623;SDS011;9959;49.798;9.928;2023-06-14T12:37:55;4.68;;;4.10;;
19623;SDS011;9959;49.798;9.928;2023-06-14T12:40:23;4.82;;;3.40;;
19623;SDS011;9959;49.798;9.928;2023-06-14T12:42:50;5.80;;;3.78;;
19623;SDS011;9959;49.798;9.928;2023-06-14T12:45:16;5.88;;;3.95;;
19623;SDS011;9959;49.798;9.928;2023-06-14T12:47:44;6.82;;;3.88;;
19623;SDS011;9959;49.798;9.928;2023-06-14T12:50:12;4.43;;;3.88;;
19623;SDS011;9959;49.798;9.928;2023-06-14T12:52:39;4.35;;;3.70;;
19623;SDS011;9959;49.798;9.928;2023-06-14T12:55:06;7.63;;;3.92;;
19623;SDS011;9959;49.798;9.928;2023-06-14T12:57:33;8.38;;;4.38;;
19623;SDS011;9959;49.798;9.928;2023-06-14T13:00:03;6.50;;;4.38;;
19623;SDS011;9959;49.798;9.928;2023-06-14T13:02:33;5.50;;;3.67;;
19623;SDS011;9959;49.798;9.928;2023-06-14T13:05:00;5.45;;;4.40;;
19623;SDS011;9959;49.798;9.928;2023-06-14T13:07:30;6.43;;;3.97;;
19623;SDS011;9959;49.798;9.928;2023-06-14T13:09:57;8.10;;;4.00;;
19623;SDS011;9959;49.798;9.928;2023-06-14T13:12:24;9.82;;;3.90;;
19623;SDS011;9959;49.798;9.928;2023-06-14T13:14:50;6.00;;;3.63;;
19623;SDS011;9959;49.798;9.928;2023-06-14T13:17:17;6.32;;;3.80;;
19623;SDS011;9959;49.798;9.928;2023-06-14T13:19:44;6.22;;;4.10;;
19623;SDS011;9959;49.798;9.928;2023-06-14T13:22:11;6.10;;;4.30;;
19623;SDS011;9959;49.798;9.928;2023-06-14T13:24:38;7.43;;;4.22;;
19623;SDS011;9959;49.798;9.928;2023-06-14T13:27:05;10.50;;;4.13;;
19623;SDS011;9959;49.798;9.928;2023-06-14T13:29:33;4.40;;;3.67;;
19623;SDS011;9959;49.798;9.928;2023-06-14T13:32:03;7.47;;;3.70;;
19623;SDS011;9959;49.798;9.928;2023-06-14T13:34:30;6.47;;;3.70;;
19623;SDS011;9959;49.798;9.928;2023-06-14T13:36:57;6.35;;;3.58;;
19623;SDS011;9959;49.798;9.928;2023-06-14T13:39:25;4.43;;;3.53;;
19623;SDS011;9959;49.798;9.928;2023-06-14T13:41:52;5.82;;;3.65;;
19623;SDS011;9959;49.798;9.928;2023-06-14T13:44:19;5.38;;;4.00;;
19623;SDS011;9959;49.798;9.928;2023-06-14T13:46:47;5.10;;;3.90;;
19623;SDS011;9959;49.798;9.928;2023-06-14T13:49:14;4.50;;;3.70;;
19623;SDS011;9959;49.798;9.928;2023-06-14T13:51:41;6.75;;;3.90;;
19623;SDS011;9959;49.798;9.928;2023-06-14T13:54:08;5.45;;;4.03;;
19623;SDS011;9959;49.798;9.928;2023-06-14T13:56:35;3.70;;;3.40;;
19623;SDS011;9959;49.798;9.928;2023-06-14T13:59:02;8.25;;;3.75;;
19623;SDS011;9959;49.798;9.928;2023-06-14T14:01:29;4.70;;;4.30;;
19623;SDS011;9959;49.798;9.928;2023-06-14T14:03:56;5.65;;;3.60;;
19623;SDS011;9959;49.798;9.928;2023-06-14T14:06:25;4.97;;;3.30;;
19623;SDS011;9959;49.798;9.928;2023-06-14T14:08:52;5.72;;;3.75;;
19623;SDS011;9959;49.798;9.928;2023-06-14T14:11:24;4.18;;;3.65;;
19623;SDS011;9959;49.798;9.928;2023-06-14T14:13:51;6.63;;;4.30;;
19623;SDS011;9959;49.798;9.928;2023-06-14T14:16:17;8.40;;;4.25;;
19623;SDS011;9959;49.798;9.928;2023-06-14T14:18:45;5.22;;;3.45;;
19623;SDS011;9959;49.798;9.928;2023-06-14T14:21:13;5.85;;;3.70;;
19623;SDS011;9959;49.798;9.928;2023-06-14T14:23:39;6.05;;;4.00;;
19623;SDS011;9959;49.798;9.928;2023-06-14T14:26:07;6.40;;;3.60;;
19623;SDS011;9959;49.798;9.928;2023-06-14T14:28:34;5.40;;;3.70;;
19623;SDS011;9959;49.798;9.928;2023-06-14T14:31:01;4.78;;;3.60;;
19623;SDS011;9959;49.798;9.928;2023-06-14T14:33:28;6.22;;;3.72;;
19623;SDS011;9959;49.798;9.928;2023-06-14T14:35:55;4.63;;;3.90;;
19623;SDS011;9959;49.798;9.928;2023-06-14T14:38:22;6.95;;;3.53;;
19623;SDS011;9959;49.798;9.928;2023-06-14T14:40:49;4.85;;;3.72;;
19623;SDS011;9959;49.798;9.928;2023-06-14T14:43:15;3.92;;;3.50;;
19623;SDS011;9959;49.798;9.928;2023-06-14T14:45:42;4.40;;;4.00;;
19623;SDS011;9959;49.798;9.928;2023-06-14T14:48:09;8.65;;;3.78;;
19623;SDS011;9959;49.798;9.928;2023-06-14T14:50:36;5.93;;;3.60;;
19623;SDS011;9959;49.798;9.928;2023-06-14T14:53:04;5.78;;;3.20;;
19623;SDS011;9959;49.798;9.928;2023-06-14T14:55:32;4.03;;;3.63;;
19623;SDS011;9959;49.798;9.928;2023-06-14T14:58:01;7.13;;;3.60;;
19623;SDS011;9959;49.798;9.928;2023-06-14T15:00:29;5.07;;;3.70;;
19623;SDS011;9959;49.798;9.928;2023-06-14T15:02:56;5.45;;;3.88;;
19623;SDS011;9959;49.798;9.928;2023-06-14T15:05:23;4.43;;;3.50;;
19623;SDS011;9959;49.798;9.928;2023-06-14T15:07:50;5.10;;;3.78;;
19623;SDS011;9959;49.798;9.928;2023-06-14T15:10:17;4.30;;;3.22;;
19623;SDS011;9959;49.798;9.928;2023-06-14T15:12:44;3.78;;;3.40;;